Aeroporto :
LOGIN :

Iscrizione | Disclaimer

   EN    FR    IT 

 










Sommario :    VFR   VFR Marginale   IFR   IFR Intensivo   IFR Molto Intensivo
Visibilità : 
Base nubi : 
>= 8 km
>= 3000ft
5 / 8 km
1000 / 3000 ft
1500m / 5 km
500 / 1000 ft
800 / 1500m
200 / 500 ft
< 800m
< 200 ft
Simboli :   Temporali  Nebbia  Neve Forte  Precipitazioni Forti  Vento > 20 kt
SIGMETs :   Varie  Temporali  Ghiacco  Turbolenza  Onda orograficha  Ceneri Vulcaniche






- Altitudine del aeroporto : 83 ft
- Codice IATA : LHR


EGLL - London Heathrow

ULTIMO METAR :
  • 161250Z AUTO 25012KT 210V280 9999 SCT021 BKN040 OVC046 19/14 Q1010

METARs OBSOLETI :
  • 161220Z AUTO 27012KT 9999 SCT021 SCT025 BKN034 19/13 Q1010
  • 161150Z AUTO 27010KT 9999 SCT023 BKN031 OVC039 19/13 Q1009 NOSIG
  • 161120Z AUTO 27013KT 9999 FEW028 BKN032 OVC041 19/13 Q1009
  • 161050Z AUTO 27011KT 9999 SCT024 SCT036 OVC043 20/13 Q1008 NOSIG
  • 161020Z AUTO 26010KT 9999 FEW024 SCT032 BKN040 19/13 Q1008 NOSIG
  • 160950Z AUTO 29008KT 260V320 9999 FEW023 BKN036 19/12 Q1008 NOSIG
  • 160920Z AUTO 28010KT 9999 FEW022 SCT027 BKN031 18/12 Q1008
  • 160850Z AUTO 26008KT 210V300 9999 SCT018 BKN023 18/13 Q1007 NOSIG
  • 160820Z AUTO 27006KT 220V310 9999 FEW016 SCT020 17/12 Q1007 NOSIG

TAF TAF EGLL
Valido dal 16 a 12 ore il 17 a 18 ore UTC


161055Z 1612/1718 28010KT 9999 SCT025
TEMPO 1612/1621 7000 SHRA
PROB30
TEMPO 1612/1619 4000 +SHRA
BECMG 1702/1705 22005KT



MetMap, La meteo Aeronautica in un colpo d'occhio ! - Copyright ORBIFLY Dicembre 2007 - Disclaimer

ORBIFLY MET'MAP TEAM :

Programmazione e sviluppo : Alexandra Zaïnal
Concezione : Baudouin d'Aumeries
Supporto tecnico e logistico : Manuel Goepfert
Aiuto : Marc-Olivier Méhu
Aiuto per la traduzione : Arnaldo La Scala




FONTI E CREDITI :

   NOAA